createdAt,value
2023-03-05T00:01:09.154Z,-0.46
2023-03-05T00:03:36.486Z,-0.64
2023-03-05T00:06:03.813Z,-0.56
2023-03-05T00:08:31.379Z,-0.80
2023-03-05T00:11:00.182Z,-0.87
2023-03-05T00:13:27.277Z,-0.70
2023-03-05T00:15:54.081Z,-1.00
2023-03-05T00:18:21.393Z,-0.55
2023-03-05T00:20:48.386Z,-0.48
2023-03-05T00:23:15.558Z,-0.54
2023-03-05T00:25:42.398Z,-0.75
2023-03-05T00:28:09.290Z,-0.60
2023-03-05T00:30:35.935Z,-0.48
2023-03-05T00:33:02.686Z,-0.58
2023-03-05T00:35:29.425Z,-0.52
2023-03-05T00:37:56.232Z,-0.71
2023-03-05T00:40:23.211Z,-0.79
2023-03-05T00:42:50.095Z,-0.62
2023-03-05T00:45:16.944Z,-0.56
2023-03-05T00:47:45.889Z,-0.79
2023-03-05T00:50:12.470Z,-0.98
2023-03-05T00:52:39.116Z,-0.57
2023-03-05T00:55:06.060Z,-0.50
2023-03-05T00:57:33.053Z,-0.41
2023-03-05T00:59:59.733Z,-0.44
2023-03-05T01:02:26.364Z,-0.81
2023-03-05T01:04:52.984Z,-0.76
2023-03-05T01:07:19.591Z,-0.46
2023-03-05T01:09:46.172Z,-0.31
2023-03-05T01:12:12.851Z,-0.27
2023-03-05T01:14:39.609Z,-0.50
2023-03-05T01:17:08.266Z,-0.41
2023-03-05T01:19:34.873Z,-0.71
2023-03-05T01:22:03.847Z,-0.41
2023-03-05T01:24:32.046Z,-0.65
2023-03-05T01:26:59.071Z,-0.50
2023-03-05T01:29:25.686Z,-0.53
2023-03-05T01:31:52.305Z,-0.51
2023-03-05T01:34:19.249Z,-0.92
2023-03-05T01:36:45.944Z,-0.71
2023-03-05T01:39:13.022Z,-0.64
2023-03-05T01:41:39.588Z,-0.68
2023-03-05T01:44:06.172Z,-1.23
2023-03-05T01:46:35.200Z,-0.88
2023-03-05T01:49:27.972Z,-1.09
2023-03-05T01:52:07.558Z,-0.67
2023-03-05T01:54:39.301Z,-0.76
2023-03-05T01:57:16.788Z,-0.99
2023-03-05T01:59:48.541Z,-0.74
2023-03-05T02:02:15.357Z,-1.29
2023-03-05T02:04:46.508Z,-0.83
2023-03-05T02:07:15.786Z,-0.88
2023-03-05T02:09:42.487Z,-1.21
2023-03-05T02:12:12.897Z,-0.92
2023-03-05T02:14:41.294Z,-1.22
2023-03-05T02:17:08.818Z,-0.83
2023-03-05T02:20:16.180Z,-1.10
2023-03-05T02:22:43.151Z,-0.89
2023-03-05T02:25:21.954Z,-0.91
2023-03-05T02:28:00.104Z,-0.75
2023-03-05T02:30:26.896Z,-1.28
2023-03-05T02:32:59.360Z,-1.08
2023-03-05T02:35:27.638Z,-0.83
2023-03-05T02:37:54.430Z,-0.77
2023-03-05T02:40:21.179Z,-1.07
2023-03-05T02:42:49.043Z,-0.85
2023-03-05T02:45:15.896Z,-1.14
2023-03-05T02:47:42.567Z,-0.94
2023-03-05T02:50:12.624Z,-1.34
2023-03-05T02:52:40.508Z,-1.01
2023-03-05T02:55:12.245Z,-0.92
2023-03-05T02:57:40.072Z,-0.77
2023-03-05T03:00:07.239Z,-1.42
2023-03-05T03:02:34.436Z,-1.22
2023-03-05T03:05:01.161Z,-0.93
2023-03-05T03:07:27.865Z,-0.84
2023-03-05T03:09:54.472Z,-0.87
2023-03-05T03:12:21.581Z,-1.00
2023-03-05T03:14:48.268Z,-0.74
2023-03-05T03:17:17.895Z,-0.76
2023-03-05T03:19:45.455Z,-0.74
2023-03-05T03:22:14.458Z,-0.88
2023-03-05T03:24:42.169Z,-0.73
2023-03-05T03:27:09.373Z,-0.96
2023-03-05T03:29:37.563Z,-0.78
2023-03-05T03:32:04.750Z,-1.45
2023-03-05T03:34:31.730Z,-0.95
2023-03-05T03:36:58.327Z,-1.30
2023-03-05T03:39:25.470Z,-1.37
2023-03-05T03:41:53.514Z,-1.59
2023-03-05T03:44:21.668Z,-1.19
2023-03-05T03:46:50.032Z,-1.17
2023-03-05T03:49:17.970Z,-1.10
2023-03-05T03:51:45.015Z,-1.29
2023-03-05T03:54:11.991Z,-1.05
2023-03-05T03:56:38.697Z,-1.06
2023-03-05T03:59:05.488Z,-1.11
2023-03-05T04:01:33.240Z,-0.94
2023-03-05T04:04:00.074Z,-1.17
2023-03-05T04:06:27.027Z,-1.21
2023-03-05T04:08:53.613Z,-1.30
2023-03-05T04:11:20.304Z,-1.09
2023-03-05T04:13:47.840Z,-0.92
2023-03-05T04:16:15.655Z,-0.98
2023-03-05T04:18:42.804Z,-1.30
2023-03-05T04:21:09.791Z,-1.18
2023-03-05T04:23:36.692Z,-1.08
2023-03-05T04:26:03.871Z,-1.01
2023-03-05T04:28:30.568Z,-1.18
2023-03-05T04:30:57.316Z,-1.47
2023-03-05T04:33:23.951Z,-1.15
2023-03-05T04:35:51.027Z,-1.65
2023-03-05T04:38:17.797Z,-1.23
2023-03-05T04:40:45.655Z,-1.35
2023-03-05T04:43:12.379Z,-1.85
2023-03-05T04:45:43.631Z,-1.32
2023-03-05T04:48:11.322Z,-1.48
2023-03-05T04:50:38.233Z,-1.27
2023-03-05T04:53:05.027Z,-1.76
2023-03-05T04:55:31.779Z,-1.56
2023-03-05T04:57:58.563Z,-1.50
2023-03-05T05:00:25.386Z,-1.80
2023-03-05T05:02:52.510Z,-1.37
2023-03-05T05:05:25.386Z,-1.59
2023-03-05T05:07:58.668Z,-1.39
2023-03-05T05:10:26.657Z,-1.75
2023-03-05T05:12:53.872Z,-1.58
2023-03-05T05:15:20.870Z,-1.47
2023-03-05T05:17:48.033Z,-1.44
2023-03-05T05:20:16.382Z,-1.52
2023-03-05T05:22:43.831Z,-1.88
2023-03-05T05:25:10.918Z,-1.80
2023-03-05T05:27:39.293Z,-1.72
2023-03-05T05:30:07.617Z,-2.04
2023-03-05T05:32:34.238Z,-1.85
2023-03-05T05:35:00.978Z,-1.85
2023-03-05T05:37:29.603Z,-1.63
2023-03-05T05:39:56.172Z,-1.78
2023-03-05T05:42:24.836Z,-1.62
2023-03-05T05:44:51.707Z,-1.50
2023-03-05T05:47:18.935Z,-1.83
2023-03-05T05:49:45.621Z,-1.88
2023-03-05T05:52:13.210Z,-2.04
2023-03-05T05:54:39.953Z,-1.90
2023-03-05T05:57:07.263Z,-1.80
2023-03-05T05:59:37.486Z,-1.60
2023-03-05T06:02:07.993Z,-1.43
2023-03-05T06:04:35.760Z,-1.53
2023-03-05T06:07:03.337Z,-1.63
2023-03-05T06:09:30.048Z,-1.78
2023-03-05T06:11:56.615Z,-1.77
2023-03-05T06:14:23.131Z,-2.17
2023-03-05T06:16:49.825Z,-2.13
2023-03-05T06:19:16.714Z,-1.76
2023-03-05T06:21:43.571Z,-1.99
2023-03-05T06:24:10.607Z,-1.62
2023-03-05T06:26:37.265Z,-1.48
2023-03-05T06:29:04.203Z,-1.54
2023-03-05T06:31:31.202Z,-1.47
2023-03-05T06:34:03.275Z,-1.32
2023-03-05T06:36:30.598Z,-1.44
2023-03-05T06:38:58.322Z,-1.96
2023-03-05T06:41:30.395Z,-1.66
2023-03-05T06:44:04.936Z,-1.43
2023-03-05T06:46:34.501Z,-1.35
2023-03-05T06:49:02.462Z,-1.62
2023-03-05T06:51:32.410Z,-1.48
2023-03-05T06:54:14.358Z,-1.33
2023-03-05T06:56:43.743Z,-1.40
2023-03-05T06:59:16.354Z,-1.47
2023-03-05T07:01:44.134Z,-1.56
2023-03-05T07:04:12.411Z,-1.37
2023-03-05T07:06:41.751Z,-1.63
2023-03-05T07:09:10.721Z,-1.37
2023-03-05T07:11:39.135Z,-1.25
2023-03-05T07:14:05.679Z,-1.73
2023-03-05T07:16:33.913Z,-1.88
2023-03-05T07:19:02.996Z,-1.37
2023-03-05T07:21:31.763Z,-1.56
2023-03-05T07:24:01.145Z,-2.00
2023-03-05T07:26:28.618Z,-1.42
2023-03-05T07:28:55.177Z,-1.19
2023-03-05T07:31:27.012Z,-1.01
2023-03-05T07:33:54.251Z,-0.91
2023-03-05T07:36:20.974Z,-0.80
2023-03-05T07:38:47.790Z,-0.80
2023-03-05T07:41:22.087Z,-0.84
2023-03-05T07:43:50.677Z,-0.78
2023-03-05T07:46:19.171Z,-1.17
2023-03-05T07:48:45.908Z,-1.27
2023-03-05T07:51:15.826Z,-0.94
2023-03-05T07:53:43.843Z,-1.12
2023-03-05T07:56:11.092Z,-0.80
2023-03-05T07:58:37.796Z,-0.70
2023-03-05T08:01:04.635Z,-0.54
2023-03-05T08:03:31.372Z,-0.63
2023-03-05T08:05:58.118Z,-1.09
2023-03-05T08:08:24.701Z,-0.83
2023-03-05T08:10:51.348Z,-1.13
2023-03-05T08:13:18.031Z,-0.95
2023-03-05T08:15:46.144Z,-0.42
2023-03-05T08:18:13.819Z,-0.04
2023-03-05T08:20:40.382Z,-0.27
2023-03-05T08:23:07.058Z,-0.13
2023-03-05T08:25:33.678Z,-1.00
2023-03-05T08:28:00.349Z,-1.06
2023-03-05T08:30:27.605Z,-1.34
2023-03-05T08:32:55.575Z,-0.43
2023-03-05T08:35:23.182Z,-0.06
2023-03-05T08:37:49.938Z,0.01
2023-03-05T08:40:20.269Z,0.13
2023-03-05T08:42:47.089Z,0.16
2023-03-05T08:45:14.041Z,-0.19
2023-03-05T08:47:40.809Z,-0.69
2023-03-05T08:50:08.103Z,-0.21
2023-03-05T08:52:34.763Z,-1.08
2023-03-05T08:55:01.519Z,-0.69
2023-03-05T08:57:28.359Z,-0.04
2023-03-05T08:59:57.935Z,-0.52
2023-03-05T09:02:24.642Z,-0.46
2023-03-05T09:04:51.403Z,-0.65
2023-03-05T09:07:18.072Z,-0.23
2023-03-05T09:09:47.762Z,-0.13
2023-03-05T09:12:15.942Z,0.24
2023-03-05T09:14:42.768Z,-0.23
2023-03-05T09:17:09.557Z,-0.26
2023-03-05T09:19:36.262Z,-0.64
2023-03-05T09:22:02.998Z,-0.61
2023-03-05T09:24:29.752Z,-0.27
2023-03-05T09:27:00.476Z,0.00
2023-03-05T09:29:27.771Z,-0.27
2023-03-05T09:31:54.793Z,-0.30
2023-03-05T09:34:21.925Z,0.27
2023-03-05T09:36:48.910Z,0.49
2023-03-05T09:39:17.014Z,0.48
2023-03-05T09:42:19.758Z,0.48
2023-03-05T09:44:55.275Z,0.27
2023-03-05T09:47:45.019Z,0.35
2023-03-05T09:50:43.464Z,0.68
2023-03-05T09:53:28.954Z,0.31
2023-03-05T09:56:00.638Z,-0.20
2023-03-05T09:58:48.951Z,-0.01
2023-03-05T10:01:23.710Z,0.22
2023-03-05T10:04:09.678Z,0.35
2023-03-05T10:06:58.090Z,0.90
2023-03-05T10:09:51.258Z,0.33
2023-03-05T10:12:28.021Z,1.11
2023-03-05T10:15:00.649Z,0.93
2023-03-05T10:17:55.407Z,0.69
2023-03-05T10:20:48.555Z,1.23
2023-03-05T10:23:33.383Z,0.69
2023-03-05T10:26:20.537Z,0.69
2023-03-05T10:29:24.744Z,1.01
2023-03-05T10:32:00.448Z,1.18
2023-03-05T10:34:57.016Z,0.56
2023-03-05T10:37:48.519Z,0.57
2023-03-05T10:40:45.927Z,1.13
2023-03-05T10:43:31.246Z,0.33
2023-03-05T10:45:59.423Z,1.00
2023-03-05T10:48:34.723Z,0.14
2023-03-05T10:51:10.685Z,0.73
2023-03-05T10:53:50.778Z,0.66
2023-03-05T10:56:21.421Z,0.66
2023-03-05T10:58:52.830Z,0.93
2023-03-05T11:01:31.977Z,0.75
2023-03-05T11:04:06.126Z,0.18
2023-03-05T11:06:43.115Z,0.21
2023-03-05T11:09:15.657Z,0.74
2023-03-05T11:11:42.342Z,0.34
2023-03-05T11:14:30.789Z,0.74
2023-03-05T11:16:57.770Z,-0.06
2023-03-05T11:19:36.862Z,0.89
2023-03-05T11:22:17.086Z,1.02
2023-03-05T11:24:46.771Z,0.82
2023-03-05T11:27:35.213Z,0.60
2023-03-05T11:30:19.131Z,0.17
2023-03-05T11:32:47.926Z,0.73
2023-03-05T11:35:36.110Z,0.71
2023-03-05T11:38:04.977Z,1.18
2023-03-05T11:40:35.849Z,0.69
2023-03-05T11:43:04.607Z,1.13
2023-03-05T11:45:33.152Z,0.66
2023-03-05T11:48:20.003Z,1.21
2023-03-05T11:50:53.105Z,0.65
2023-03-05T11:53:38.844Z,0.48
2023-03-05T11:56:18.736Z,1.21
2023-03-05T11:58:54.703Z,1.58
2023-03-05T12:01:27.671Z,1.11
2023-03-05T12:03:55.588Z,0.99
2023-03-05T12:06:47.136Z,1.15
2023-03-05T12:09:23.787Z,1.15
2023-03-05T12:12:16.776Z,1.43
2023-03-05T12:15:08.217Z,1.71
2023-03-05T12:17:58.364Z,2.31
2023-03-05T12:20:35.752Z,1.52
2023-03-05T12:23:02.696Z,2.08
2023-03-05T12:25:53.198Z,1.14
2023-03-05T12:28:28.895Z,1.78
2023-03-05T12:30:59.347Z,0.92
2023-03-05T12:33:38.558Z,1.01
2023-03-05T12:36:17.631Z,1.18
2023-03-05T12:38:58.288Z,1.44
2023-03-05T12:41:28.280Z,0.80
2023-03-05T12:44:21.155Z,0.83
2023-03-05T12:47:13.320Z,1.19
2023-03-05T12:49:48.414Z,1.05
2023-03-05T12:52:28.485Z,0.99
2023-03-05T12:55:54.268Z,1.16
2023-03-05T12:58:40.840Z,0.68
2023-03-05T13:01:26.949Z,1.18
2023-03-05T13:04:54.912Z,0.96
2023-03-05T13:07:46.198Z,1.07
2023-03-05T13:10:27.694Z,1.19
2023-03-05T13:13:04.714Z,1.40
2023-03-05T13:18:46.109Z,1.16
2023-03-05T13:21:21.305Z,1.29
2023-03-05T13:24:05.296Z,1.00
2023-03-05T13:26:46.085Z,0.72
2023-03-05T13:29:15.694Z,1.04
2023-03-05T13:32:27.215Z,1.10
2023-03-05T13:35:18.250Z,1.25
2023-03-05T13:38:36.236Z,1.05
2023-03-05T13:41:43.664Z,0.50
2023-03-05T13:44:21.817Z,0.26
2023-03-05T13:46:48.285Z,0.46
2023-03-05T13:49:22.491Z,0.28
2023-03-05T13:52:00.121Z,0.90
2023-03-05T13:54:28.104Z,0.89
2023-03-05T13:57:02.377Z,1.55
2023-03-05T13:59:35.028Z,1.14
2023-03-05T14:02:05.855Z,0.83
2023-03-05T14:04:41.493Z,0.99
2023-03-05T14:07:26.793Z,1.34
2023-03-05T14:09:53.786Z,1.61
2023-03-05T14:12:35.511Z,1.14
2023-03-05T14:15:02.618Z,0.86
2023-03-05T14:17:35.263Z,0.93
2023-03-05T14:20:08.112Z,0.49
2023-03-05T14:22:37.294Z,0.05
2023-03-05T14:25:06.461Z,0.61
2023-03-05T14:27:47.421Z,0.67
2023-03-05T14:30:17.303Z,0.85
2023-03-05T14:32:44.810Z,0.14
2023-03-05T14:35:20.242Z,0.24
2023-03-05T14:37:50.174Z,0.68
2023-03-05T14:40:21.913Z,0.05
2023-03-05T14:42:57.287Z,0.10
2023-03-05T14:45:26.946Z,-0.16
2023-03-05T14:47:55.011Z,0.21
2023-03-05T14:50:34.727Z,0.47
2023-03-05T14:53:15.545Z,0.37
2023-03-05T14:55:45.790Z,0.36
2023-03-05T14:58:15.775Z,0.07
2023-03-05T15:00:43.621Z,0.74
2023-03-05T15:03:15.556Z,0.56
2023-03-05T15:05:43.766Z,0.76
2023-03-05T15:08:17.320Z,-0.20
2023-03-05T15:10:44.144Z,0.27
2023-03-05T15:13:13.684Z,0.22
2023-03-05T15:15:42.245Z,0.07
2023-03-05T15:18:17.365Z,0.12
2023-03-05T15:20:44.658Z,0.16
2023-03-05T15:23:12.929Z,0.61
2023-03-05T15:25:39.975Z,0.26
2023-03-05T15:28:06.775Z,0.55
2023-03-05T15:30:39.244Z,0.16
2023-03-05T15:33:09.504Z,0.66
2023-03-05T15:35:36.902Z,0.83
2023-03-05T15:38:03.991Z,0.81
2023-03-05T15:40:30.582Z,0.73
2023-03-05T15:42:59.048Z,0.62
2023-03-05T15:45:26.606Z,0.93
2023-03-05T15:47:53.547Z,0.38
2023-03-05T15:50:21.568Z,0.43
2023-03-05T15:52:48.731Z,0.80
2023-03-05T15:55:15.905Z,0.61
2023-03-05T15:57:45.195Z,0.74
2023-03-05T16:00:13.996Z,0.73
2023-03-05T16:02:40.601Z,0.36
2023-03-05T16:05:08.252Z,0.60
2023-03-05T16:07:37.159Z,-0.02
2023-03-05T16:10:04.640Z,0.10
2023-03-05T16:12:40.534Z,0.49
2023-03-05T16:15:13.470Z,0.28
2023-03-05T16:17:43.552Z,0.10
2023-03-05T16:20:12.077Z,0.19
2023-03-05T16:22:38.716Z,0.08
2023-03-05T16:25:05.838Z,0.19
2023-03-05T16:27:32.421Z,0.23
2023-03-05T16:29:59.066Z,0.40
2023-03-05T16:32:25.823Z,0.42
2023-03-05T16:34:52.472Z,0.32
2023-03-05T16:37:21.388Z,0.62
2023-03-05T16:39:48.295Z,0.33
2023-03-05T16:42:15.077Z,0.20
2023-03-05T16:44:43.057Z,0.40
2023-03-05T16:47:12.201Z,0.49
2023-03-05T16:49:39.487Z,-0.28
2023-03-05T16:52:18.309Z,0.24
2023-03-05T16:54:46.278Z,-0.08
2023-03-05T16:57:12.810Z,-0.27
2023-03-05T16:59:39.417Z,-0.34
2023-03-05T17:02:06.101Z,-0.24
2023-03-05T17:04:32.930Z,-0.30
2023-03-05T17:06:59.613Z,-0.06
2023-03-05T17:09:26.169Z,-0.17
2023-03-05T17:11:53.660Z,-0.23
2023-03-05T17:14:20.913Z,-0.58
2023-03-05T17:16:47.613Z,-0.25
2023-03-05T17:19:14.565Z,-0.74
2023-03-05T17:21:42.456Z,-0.59
2023-03-05T17:24:10.180Z,-0.32
2023-03-05T17:26:37.185Z,-0.87
2023-03-05T17:29:04.849Z,-0.61
2023-03-05T17:31:31.612Z,-0.37
2023-03-05T17:33:58.430Z,-0.33
2023-03-05T17:36:25.533Z,-0.77
2023-03-05T17:38:52.789Z,-0.60
2023-03-05T17:41:19.843Z,-0.65
2023-03-05T17:43:46.426Z,-0.37
2023-03-05T17:46:13.483Z,-0.27
2023-03-05T17:48:40.306Z,-0.47
2023-03-05T17:51:09.725Z,-0.45
2023-03-05T17:53:38.844Z,-0.60
2023-03-05T17:56:10.212Z,-1.15
2023-03-05T17:58:37.216Z,-0.64
2023-03-05T18:01:05.971Z,-0.57
2023-03-05T18:03:32.580Z,-0.70
2023-03-05T18:05:59.207Z,-0.44
2023-03-05T18:08:25.727Z,-0.79
2023-03-05T18:10:53.281Z,-0.63
2023-03-05T18:13:19.799Z,-1.11
2023-03-05T18:15:47.755Z,-0.80
2023-03-05T18:18:18.725Z,-0.95
2023-03-05T18:23:54.568Z,-0.61
2023-03-05T18:26:21.117Z,-1.13
2023-03-05T18:28:47.637Z,-0.85
2023-03-05T18:31:14.488Z,-1.07
2023-03-05T18:33:42.214Z,-0.98
2023-03-05T18:36:10.721Z,-1.09
2023-03-05T18:38:38.463Z,-0.97
2023-03-05T18:41:06.184Z,-1.08
2023-03-05T18:43:32.786Z,-1.21
2023-03-05T18:46:04.740Z,-1.05
2023-03-05T18:48:31.290Z,-1.25
2023-03-05T18:50:57.823Z,-1.13
2023-03-05T18:53:24.414Z,-0.87
2023-03-05T18:55:52.645Z,-0.77
2023-03-05T18:58:19.552Z,-0.74
2023-03-05T19:00:47.059Z,-0.59
2023-03-05T19:03:14.903Z,-1.10
2023-03-05T19:05:42.206Z,-1.30
2023-03-05T19:08:09.175Z,-1.46
2023-03-05T19:10:35.796Z,-1.16
2023-03-05T19:13:39.950Z,-1.00
2023-03-05T19:16:40.402Z,-1.69
2023-03-05T19:19:23.054Z,-1.76
2023-03-05T19:21:54.924Z,-1.36
2023-03-05T19:24:26.903Z,-1.52
2023-03-05T19:26:55.777Z,-1.29
2023-03-05T19:29:24.033Z,-1.12
2023-03-05T19:31:51.461Z,-1.08
2023-03-05T19:34:18.553Z,-0.98
2023-03-05T19:36:45.051Z,-1.22
2023-03-05T19:39:11.717Z,-1.74
2023-03-05T19:41:38.215Z,-1.82
2023-03-05T19:44:05.615Z,-1.91
2023-03-05T19:46:32.613Z,-1.40
2023-03-05T19:48:59.319Z,-1.48
2023-03-05T19:51:27.016Z,-1.24
2023-03-05T19:53:53.824Z,-1.00
2023-03-05T19:56:20.765Z,-1.22
2023-03-05T19:58:48.893Z,-1.05
2023-03-05T20:01:20.919Z,-0.87
2023-03-05T20:03:51.706Z,-1.48
2023-03-05T20:06:18.274Z,-1.12
2023-03-05T20:08:44.822Z,-1.41
2023-03-05T20:11:13.430Z,-1.53
2023-03-05T20:13:40.692Z,-1.33
2023-03-05T20:16:26.092Z,-1.18
2023-03-05T20:18:54.826Z,-1.52
2023-03-05T20:21:33.342Z,-1.19
2023-03-05T20:24:03.705Z,-1.10
2023-03-05T20:26:32.783Z,-0.96
2023-03-05T20:28:59.467Z,-1.09
2023-03-05T20:31:27.799Z,-0.97
2023-03-05T20:33:56.194Z,-0.80
2023-03-05T20:36:24.093Z,-0.85
2023-03-05T20:38:50.663Z,-0.89
2023-03-05T20:41:20.673Z,-0.94
2023-03-05T20:43:49.528Z,-0.92
2023-03-05T20:46:26.427Z,-1.21
2023-03-05T20:48:59.001Z,-0.98
2023-03-05T20:51:37.801Z,-1.20
2023-03-05T20:54:07.047Z,-1.23
2023-03-05T20:56:34.924Z,-1.05
2023-03-05T20:59:04.508Z,-0.97
2023-03-05T21:01:33.325Z,-0.86
2023-03-05T21:04:01.016Z,-0.83
2023-03-05T21:06:28.286Z,-0.80
2023-03-05T21:08:55.678Z,-1.23
2023-03-05T21:11:22.532Z,-1.30
2023-03-05T21:13:49.074Z,-1.27
2023-03-05T21:16:19.479Z,-1.00
2023-03-05T21:18:46.142Z,-1.30
2023-03-05T21:21:12.687Z,-0.96
2023-03-05T21:23:39.192Z,-0.98
2023-03-05T21:26:05.897Z,-1.06
